Marble Falls, TX

11:55 PM CDT on April 27, 2015 (GMT -0500)
The Waterlands | | Change Station
CLOSE
Current Station
Personal Weather Station
Location: Horseshoe Bay, TX
Elevation: 837 ft
Nearby Weather Stations

Elev 837 ft 30.55 °N, 98.35 °W | Updated 3 seconds ago

Clear
Clear
63.9 °F
Feels Like 63.9 °F
N
0.0
Wind Variable Wind from WSW
Gusts 2.0 mph

Today
High -- | Low -- °F
--% Chance of Precip.
Yesterday
High -- | Low -- °F
Precip. -- in
6:53 AM 8:08 PM
Waxing Gibbous, 70% visible
Pressure 29.87 in
Visibility 10.0 miles
Clouds Clear
Dew Point 56 °F
Humidity 75%
Rainfall 0.45 in
Snow Depth Not available.
UV 0 out of 12
Pollen 7.10 out of 12
Air Quality Not available.
Flu Activity Local Activity
METAR KDZB 280435Z AUTO 35005KT 10SM CLR 19/15 A2987 RMK AO2 T01880145

More Conditions Fewer Conditions

Pressure 29.87 in
Visibility 10.0 miles
Clouds Clear
Dew Point 56 °F
Humidity 75%
Rainfall 0.45 in
Snow Depth Not available.
UV 0 out of 12
Pollen 7.10 out of 12
Air Quality Not available.
Flu Activity Local Activity
METAR KDZB 280435Z AUTO 35005KT 10SM CLR 19/15 A2987 RMK AO2 T01880145

More Conditions Fewer Conditions

Nowcast | as of 9:56 PM CDT on April 27, 2015

Through midnight CDT...isolated showers and thunderstorms will move east at 35 mph across the northern Hill Country to near Taylor in central Texas. Expect spotty rainfall amounts of a trace up to one-quarter inch from each cell...with some potential for hail up to dime size.

×

10-Day Weather Forecast

Almanac

Astronomy

Apr. 27, 2015 Rise Set
Actual Time
Civil Twilight
Nautical Twilight
Astronomical Twilight
Moon
Length of Visible Light
Length of Day
Tomorrow will be .
, % of the Moon is Illuminated

Today's Extremes

State Highs State Lows

Community

WunderPhotos

Upload Photos

1,817,582 photos uploaded!

WunderBlogs® & News

Nearby

Air Quality

  Air Quality AQ Index Pollutant
Not available.

Snow Depth

Station Depth Elevation

Earthquake Activity

City Distance Mag. Time & Date
Minimum magnitude displayed is 2.5.

Coastal Water Temperatures

Place Temperature

Stations

Nearby Weather Stations

Station Location Temp. Windchill Dew Point Humidity Wind Precip. Elev Updated Type